KORD

Chicago O'hare International Airport

Chicago, Illinois, USA
KORD 201720Z 2018/2124 VRB03KT P6SM SCT250 FM201930 08010KT P6SM SCT250 FM210200 07004KT P6SM BKN200 FM211000 07003KT P6SM SCT080 BKN100 FM212000 06008KT P6SM BKN080
Issued Valid From Valid To
Apr-20 @ 17:20 UTC
(an hour ago)
Apr-20 @ 18:00 UTC
(30 minutes ago)
Apr-22 @ 00:00 UTC
(-1 days ago)
Apr-20 @ 18:00 to Apr-20 @ 19:30
KORD 201720Z 2018/2124 VRB03KT P6SM SCT250
Wind Visibility Clouds
Variable at 3 knots Greater than 6 miles
  • Scattered at 25,000' AGL
From Apr-20 @ 19:30 to Apr-21 @ 02:00
FM201930 08010KT P6SM SCT250
Wind Visibility Clouds
80° at 10 knots Greater than 6 miles
  • Scattered at 25,000' AGL
From Apr-21 @ 02:00 to Apr-21 @ 10:00
FM210200 07004KT P6SM BKN200
Wind Visibility Clouds
70° at 4 knots Greater than 6 miles
  • Broken at 20,000' AGL
From Apr-21 @ 10:00 to Apr-21 @ 20:00
FM211000 07003KT P6SM SCT080 BKN100
Wind Visibility Clouds
70° at 3 knots Greater than 6 miles
  • Scattered at 8,000' AGL
  • Broken at 10,000' AGL
From Apr-21 @ 20:00 to Apr-22 @ 00:00
FM212000 06008KT P6SM BKN080
Wind Visibility Clouds
60° at 8 knots Greater than 6 miles
  • Broken at 8,000' AGL
KORD 201720Z 2018/2124 VRB03KT P6SM SCT250 FM201930 08010KT P6SM SCT250 FM210200 07004KT P6SM BKN200 FM211000 07003KT P6SM SCT080 BKN100 FM212000 06008KT P6SM BKN080
Issued Apr-20 @ 17:20 UTC
(an hour ago)
Valid From Apr-20 @ 18:00 UTC
(30 minutes ago)
Valid To Apr-22 @ 00:00 UTC
(-1 days ago)
Apr-20 @ 18:00 - Apr-20 @ 19:30
Wind Visibility
Variable at 3 knots Greater than 6 miles
Clouds
  • Scattered at 25,000' AGL
From Apr-20 @ 19:30 - Apr-21 @ 02:00
Wind Visibility
80° at 10 knots Greater than 6 miles
Clouds
  • Scattered at 25,000' AGL
From Apr-21 @ 02:00 - Apr-21 @ 10:00
Wind Visibility
70° at 4 knots Greater than 6 miles
Clouds
  • Broken at 20,000' AGL
From Apr-21 @ 10:00 - Apr-21 @ 20:00
Wind Visibility
70° at 3 knots Greater than 6 miles
Clouds
  • Scattered at 8,000' AGL
  • Broken at 10,000' AGL
From Apr-21 @ 20:00 - Apr-22 @ 00:00
Wind Visibility
60° at 8 knots Greater than 6 miles
Clouds
  • Broken at 8,000' AGL